DAUU/OGX METAR and TAF weather

Enter ICAO airport designator
Station Type Date Time Source
DAUU METAR 2021/04/18 02:00 UTC NOAA

DAUU 180200Z 35004KT CAVOK 13/M01 Q1015


Station Type Date Time Source
DAUU Decoded METAR 2021/04/18 02:00 UTC NOAA

Ouargla, Algeria (DAUU) 31-55N 005-24E 141M
Apr 17, 2021 - 10:00 PM EDT / 2021.04.18 0200 UTC
Wind: from the N (350 degrees) at 5 MPH (4 KT):0
Visibility: greater than 7 mile(s):0
Temperature: 55 F (13 C)
Dew Point: 30 F (-1 C)
Relative Humidity: 37%
Pressure (altimeter): 29.97 in. Hg (1015 hPa)
ob: DAUU 180200Z 35004KT CAVOK 13/M01 Q1015
cycle: 2

Station Type Date Time Source
DAUU TAF 2017/11/09 18:03 UTC NOAA

TAF DAUU 091700Z 0918/1009 34012KT 9999 FEW040 SCT100 PROB40
TEMPO 0918/0924 34015G25KT 5000 -TSRA FEW036CB

Example: see airport list